sensor_id;sensor_type;location;lat;lon;timestamp;P1;durP1;ratioP1;P2;durP2;ratioP2
23080;SDS011;11708;50.570;8.532;2022-09-24T00:00:42;10.27;;;7.38;;
23080;SDS011;11708;50.570;8.532;2022-09-24T00:03:09;8.90;;;6.50;;
23080;SDS011;11708;50.570;8.532;2022-09-24T00:05:35;9.43;;;6.32;;
23080;SDS011;11708;50.570;8.532;2022-09-24T00:08:05;9.75;;;6.45;;
23080;SDS011;11708;50.570;8.532;2022-09-24T00:10:35;10.13;;;6.70;;
23080;SDS011;11708;50.570;8.532;2022-09-24T00:13:03;9.65;;;6.45;;
23080;SDS011;11708;50.570;8.532;2022-09-24T00:15:29;8.82;;;6.90;;
23080;SDS011;11708;50.570;8.532;2022-09-24T00:17:55;9.23;;;6.55;;
23080;SDS011;11708;50.570;8.532;2022-09-24T00:20:21;7.45;;;6.43;;
23080;SDS011;11708;50.570;8.532;2022-09-24T00:22:46;11.90;;;6.72;;
23080;SDS011;11708;50.570;8.532;2022-09-24T00:25:12;8.85;;;7.20;;
23080;SDS011;11708;50.570;8.532;2022-09-24T00:27:56;10.60;;;7.13;;
23080;SDS011;11708;50.570;8.532;2022-09-24T00:30:22;11.07;;;7.15;;
23080;SDS011;11708;50.570;8.532;2022-09-24T00:32:47;8.52;;;7.07;;
23080;SDS011;11708;50.570;8.532;2022-09-24T00:35:14;9.98;;;7.80;;
23080;SDS011;11708;50.570;8.532;2022-09-24T00:37:39;10.02;;;7.40;;
23080;SDS011;11708;50.570;8.532;2022-09-24T00:40:05;9.73;;;7.05;;
23080;SDS011;11708;50.570;8.532;2022-09-24T00:42:31;8.48;;;6.75;;
23080;SDS011;11708;50.570;8.532;2022-09-24T00:44:57;11.50;;;7.97;;
23080;SDS011;11708;50.570;8.532;2022-09-24T00:49:51;9.50;;;7.68;;
23080;SDS011;11708;50.570;8.532;2022-09-24T00:52:53;11.63;;;8.02;;
23080;SDS011;11708;50.570;8.532;2022-09-24T00:55:23;9.20;;;7.72;;
23080;SDS011;11708;50.570;8.532;2022-09-24T00:57:51;9.02;;;7.03;;
23080;SDS011;11708;50.570;8.532;2022-09-24T01:00:20;9.38;;;7.18;;
23080;SDS011;11708;50.570;8.532;2022-09-24T01:02:46;10.15;;;7.80;;
23080;SDS011;11708;50.570;8.532;2022-09-24T01:05:15;11.57;;;8.45;;
23080;SDS011;11708;50.570;8.532;2022-09-24T01:07:41;9.75;;;6.82;;
23080;SDS011;11708;50.570;8.532;2022-09-24T01:10:07;10.30;;;8.00;;
23080;SDS011;11708;50.570;8.532;2022-09-24T01:12:39;10.98;;;8.55;;
23080;SDS011;11708;50.570;8.532;2022-09-24T01:15:27;10.70;;;7.22;;
23080;SDS011;11708;50.570;8.532;2022-09-24T01:18:02;12.52;;;7.30;;
23080;SDS011;11708;50.570;8.532;2022-09-24T01:21:21;9.80;;;7.55;;
23080;SDS011;11708;50.570;8.532;2022-09-24T01:26:36;13.18;;;7.57;;
23080;SDS011;11708;50.570;8.532;2022-09-24T01:35:22;10.52;;;8.00;;
23080;SDS011;11708;50.570;8.532;2022-09-24T01:38:08;10.27;;;7.53;;
23080;SDS011;11708;50.570;8.532;2022-09-24T01:40:37;8.68;;;6.93;;
23080;SDS011;11708;50.570;8.532;2022-09-24T01:43:04;11.55;;;7.88;;
23080;SDS011;11708;50.570;8.532;2022-09-24T01:45:33;10.25;;;7.32;;
23080;SDS011;11708;50.570;8.532;2022-09-24T01:48:01;10.73;;;8.55;;
23080;SDS011;11708;50.570;8.532;2022-09-24T01:50:30;9.07;;;6.95;;
23080;SDS011;11708;50.570;8.532;2022-09-24T01:55:28;10.30;;;7.50;;
23080;SDS011;11708;50.570;8.532;2022-09-24T01:57:59;8.93;;;7.53;;
23080;SDS011;11708;50.570;8.532;2022-09-24T02:00:35;11.88;;;7.15;;
23080;SDS011;11708;50.570;8.532;2022-09-24T02:03:48;13.82;;;8.02;;
23080;SDS011;11708;50.570;8.532;2022-09-24T02:05:58;10.68;;;7.20;;
23080;SDS011;11708;50.570;8.532;2022-09-24T02:08:46;11.93;;;7.72;;
23080;SDS011;11708;50.570;8.532;2022-09-24T02:11:22;8.52;;;7.18;;
23080;SDS011;11708;50.570;8.532;2022-09-24T02:16:14;11.23;;;7.65;;
23080;SDS011;11708;50.570;8.532;2022-09-24T02:18:45;8.15;;;7.10;;
23080;SDS011;11708;50.570;8.532;2022-09-24T02:21:14;10.73;;;7.60;;
23080;SDS011;11708;50.570;8.532;2022-09-24T02:23:45;9.75;;;6.63;;
23080;SDS011;11708;50.570;8.532;2022-09-24T02:26:15;10.27;;;7.13;;
23080;SDS011;11708;50.570;8.532;2022-09-24T02:28:41;7.78;;;6.82;;
23080;SDS011;11708;50.570;8.532;2022-09-24T02:31:09;10.43;;;7.25;;
23080;SDS011;11708;50.570;8.532;2022-09-24T02:33:38;11.13;;;6.90;;
23080;SDS011;11708;50.570;8.532;2022-09-24T02:36:26;12.80;;;7.85;;
23080;SDS011;11708;50.570;8.532;2022-09-24T02:38:53;8.18;;;6.68;;
23080;SDS011;11708;50.570;8.532;2022-09-24T02:41:18;9.15;;;7.20;;
23080;SDS011;11708;50.570;8.532;2022-09-24T02:43:47;11.85;;;7.18;;
23080;SDS011;11708;50.570;8.532;2022-09-24T02:46:14;8.80;;;6.47;;
23080;SDS011;11708;50.570;8.532;2022-09-24T02:48:39;10.20;;;6.88;;
23080;SDS011;11708;50.570;8.532;2022-09-24T02:51:05;11.05;;;6.55;;
23080;SDS011;11708;50.570;8.532;2022-09-24T02:53:31;10.43;;;6.60;;
23080;SDS011;11708;50.570;8.532;2022-09-24T02:55:57;10.20;;;6.78;;
23080;SDS011;11708;50.570;8.532;2022-09-24T02:58:24;10.60;;;7.05;;
23080;SDS011;11708;50.570;8.532;2022-09-24T03:00:51;7.70;;;6.40;;
23080;SDS011;11708;50.570;8.532;2022-09-24T03:03:17;11.52;;;6.43;;
23080;SDS011;11708;50.570;8.532;2022-09-24T03:05:43;8.40;;;6.35;;
23080;SDS011;11708;50.570;8.532;2022-09-24T03:08:09;7.28;;;6.22;;
23080;SDS011;11708;50.570;8.532;2022-09-24T03:10:35;11.02;;;6.20;;
23080;SDS011;11708;50.570;8.532;2022-09-24T03:13:00;12.52;;;6.90;;
23080;SDS011;11708;50.570;8.532;2022-09-24T03:15:26;9.15;;;6.57;;
23080;SDS011;11708;50.570;8.532;2022-09-24T03:17:53;9.77;;;6.25;;
23080;SDS011;11708;50.570;8.532;2022-09-24T03:20:19;11.10;;;6.55;;
23080;SDS011;11708;50.570;8.532;2022-09-24T03:22:48;9.65;;;6.68;;
23080;SDS011;11708;50.570;8.532;2022-09-24T03:25:15;7.07;;;6.32;;
23080;SDS011;11708;50.570;8.532;2022-09-24T03:27:41;8.02;;;6.13;;
23080;SDS011;11708;50.570;8.532;2022-09-24T03:30:07;8.65;;;6.25;;
23080;SDS011;11708;50.570;8.532;2022-09-24T03:32:51;8.30;;;6.40;;
23080;SDS011;11708;50.570;8.532;2022-09-24T03:35:16;7.68;;;6.22;;
23080;SDS011;11708;50.570;8.532;2022-09-24T03:37:43;6.93;;;6.18;;
23080;SDS011;11708;50.570;8.532;2022-09-24T03:40:10;9.98;;;6.88;;
23080;SDS011;11708;50.570;8.532;2022-09-24T03:42:36;8.02;;;6.38;;
23080;SDS011;11708;50.570;8.532;2022-09-24T03:45:01;9.25;;;6.68;;
23080;SDS011;11708;50.570;8.532;2022-09-24T03:47:28;10.20;;;6.57;;
23080;SDS011;11708;50.570;8.532;2022-09-24T03:49:55;8.05;;;6.07;;
23080;SDS011;11708;50.570;8.532;2022-09-24T03:52:21;10.00;;;6.40;;
23080;SDS011;11708;50.570;8.532;2022-09-24T03:54:48;8.40;;;6.40;;
23080;SDS011;11708;50.570;8.532;2022-09-24T03:57:19;9.73;;;6.45;;
23080;SDS011;11708;50.570;8.532;2022-09-24T03:59:46;13.95;;;6.82;;
23080;SDS011;11708;50.570;8.532;2022-09-24T04:02:12;7.22;;;6.32;;
23080;SDS011;11708;50.570;8.532;2022-09-24T04:04:38;9.10;;;6.40;;
23080;SDS011;11708;50.570;8.532;2022-09-24T04:07:03;10.70;;;6.40;;
23080;SDS011;11708;50.570;8.532;2022-09-24T04:09:29;7.60;;;6.43;;
23080;SDS011;11708;50.570;8.532;2022-09-24T04:11:55;9.52;;;6.18;;
23080;SDS011;11708;50.570;8.532;2022-09-24T04:14:24;6.85;;;6.15;;
23080;SDS011;11708;50.570;8.532;2022-09-24T04:16:49;8.82;;;6.28;;
23080;SDS011;11708;50.570;8.532;2022-09-24T04:19:15;10.38;;;6.40;;
23080;SDS011;11708;50.570;8.532;2022-09-24T04:21:46;9.30;;;6.00;;
23080;SDS011;11708;50.570;8.532;2022-09-24T04:24:12;9.57;;;6.18;;
23080;SDS011;11708;50.570;8.532;2022-09-24T04:26:38;12.63;;;6.93;;
23080;SDS011;11708;50.570;8.532;2022-09-24T04:29:03;9.40;;;6.60;;
23080;SDS011;11708;50.570;8.532;2022-09-24T04:31:30;7.43;;;6.43;;
23080;SDS011;11708;50.570;8.532;2022-09-24T04:33:57;10.20;;;6.75;;
23080;SDS011;11708;50.570;8.532;2022-09-24T04:36:23;8.27;;;7.18;;
23080;SDS011;11708;50.570;8.532;2022-09-24T04:38:49;10.02;;;7.57;;
23080;SDS011;11708;50.570;8.532;2022-09-24T04:41:15;9.38;;;6.60;;
23080;SDS011;11708;50.570;8.532;2022-09-24T04:43:40;8.40;;;5.95;;
23080;SDS011;11708;50.570;8.532;2022-09-24T04:46:07;9.18;;;6.72;;
23080;SDS011;11708;50.570;8.532;2022-09-24T04:48:33;9.52;;;7.13;;
23080;SDS011;11708;50.570;8.532;2022-09-24T04:51:02;9.15;;;7.15;;
23080;SDS011;11708;50.570;8.532;2022-09-24T04:53:31;8.85;;;7.38;;
23080;SDS011;11708;50.570;8.532;2022-09-24T04:55:58;9.80;;;7.07;;
23080;SDS011;11708;50.570;8.532;2022-09-24T04:58:25;11.18;;;7.57;;
23080;SDS011;11708;50.570;8.532;2022-09-24T05:00:51;10.32;;;7.55;;
23080;SDS011;11708;50.570;8.532;2022-09-24T05:03:17;8.52;;;7.28;;
23080;SDS011;11708;50.570;8.532;2022-09-24T05:05:45;8.82;;;6.90;;
23080;SDS011;11708;50.570;8.532;2022-09-24T05:08:11;9.13;;;6.95;;
23080;SDS011;11708;50.570;8.532;2022-09-24T05:10:37;10.27;;;6.57;;
23080;SDS011;11708;50.570;8.532;2022-09-24T05:13:03;9.10;;;7.63;;
23080;SDS011;11708;50.570;8.532;2022-09-24T05:15:29;10.48;;;6.70;;
23080;SDS011;11708;50.570;8.532;2022-09-24T05:17:55;10.55;;;7.22;;
23080;SDS011;11708;50.570;8.532;2022-09-24T05:20:21;10.77;;;6.63;;
23080;SDS011;11708;50.570;8.532;2022-09-24T05:22:47;8.80;;;6.38;;
23080;SDS011;11708;50.570;8.532;2022-09-24T05:25:13;9.02;;;7.22;;
23080;SDS011;11708;50.570;8.532;2022-09-24T05:27:47;12.68;;;8.77;;
23080;SDS011;11708;50.570;8.532;2022-09-24T05:30:17;10.15;;;6.88;;
23080;SDS011;11708;50.570;8.532;2022-09-24T05:32:44;12.75;;;7.22;;
23080;SDS011;11708;50.570;8.532;2022-09-24T05:35:13;11.73;;;6.95;;
23080;SDS011;11708;50.570;8.532;2022-09-24T05:37:39;9.20;;;7.05;;
23080;SDS011;11708;50.570;8.532;2022-09-24T05:40:05;8.63;;;6.90;;
23080;SDS011;11708;50.570;8.532;2022-09-24T05:42:50;10.32;;;6.78;;
23080;SDS011;11708;50.570;8.532;2022-09-24T05:45:17;12.35;;;7.43;;
23080;SDS011;11708;50.570;8.532;2022-09-24T05:47:46;9.68;;;7.15;;
23080;SDS011;11708;50.570;8.532;2022-09-24T05:50:12;10.63;;;7.53;;
23080;SDS011;11708;50.570;8.532;2022-09-24T05:52:39;11.23;;;7.63;;
23080;SDS011;11708;50.570;8.532;2022-09-24T05:55:05;10.52;;;7.85;;
23080;SDS011;11708;50.570;8.532;2022-09-24T05:57:32;9.27;;;6.97;;
23080;SDS011;11708;50.570;8.532;2022-09-24T05:59:58;9.85;;;7.20;;
23080;SDS011;11708;50.570;8.532;2022-09-24T06:02:24;11.32;;;7.30;;
23080;SDS011;11708;50.570;8.532;2022-09-24T06:04:49;10.85;;;7.85;;
23080;SDS011;11708;50.570;8.532;2022-09-24T06:07:15;10.35;;;7.18;;
23080;SDS011;11708;50.570;8.532;2022-09-24T06:09:40;11.43;;;7.97;;
23080;SDS011;11708;50.570;8.532;2022-09-24T06:12:06;12.35;;;8.05;;
23080;SDS011;11708;50.570;8.532;2022-09-24T06:14:32;10.13;;;7.82;;
23080;SDS011;11708;50.570;8.532;2022-09-24T06:16:58;12.43;;;8.32;;
23080;SDS011;11708;50.570;8.532;2022-09-24T06:19:23;10.18;;;7.53;;
23080;SDS011;11708;50.570;8.532;2022-09-24T06:21:49;8.73;;;7.72;;
23080;SDS011;11708;50.570;8.532;2022-09-24T06:24:15;9.55;;;7.25;;
23080;SDS011;11708;50.570;8.532;2022-09-24T06:26:40;10.25;;;7.90;;
23080;SDS011;11708;50.570;8.532;2022-09-24T06:29:06;10.77;;;8.52;;
23080;SDS011;11708;50.570;8.532;2022-09-24T06:31:31;12.50;;;8.60;;
23080;SDS011;11708;50.570;8.532;2022-09-24T06:33:59;15.05;;;8.75;;
23080;SDS011;11708;50.570;8.532;2022-09-24T06:36:26;10.40;;;8.65;;
23080;SDS011;11708;50.570;8.532;2022-09-24T06:38:53;13.05;;;9.77;;
23080;SDS011;11708;50.570;8.532;2022-09-24T06:41:19;13.30;;;8.70;;
23080;SDS011;11708;50.570;8.532;2022-09-24T06:43:45;11.77;;;8.75;;
23080;SDS011;11708;50.570;8.532;2022-09-24T06:46:11;13.63;;;9.05;;
23080;SDS011;11708;50.570;8.532;2022-09-24T06:48:38;11.88;;;8.75;;
23080;SDS011;11708;50.570;8.532;2022-09-24T06:51:03;11.48;;;8.38;;
23080;SDS011;11708;50.570;8.532;2022-09-24T06:53:29;11.93;;;8.73;;
23080;SDS011;11708;50.570;8.532;2022-09-24T06:55:56;15.07;;;9.15;;
23080;SDS011;11708;50.570;8.532;2022-09-24T06:58:27;10.07;;;8.48;;
23080;SDS011;11708;50.570;8.532;2022-09-24T07:00:54;12.63;;;8.93;;
23080;SDS011;11708;50.570;8.532;2022-09-24T07:03:24;11.50;;;8.90;;
23080;SDS011;11708;50.570;8.532;2022-09-24T07:05:51;12.27;;;8.93;;
23080;SDS011;11708;50.570;8.532;2022-09-24T07:08:17;12.25;;;8.90;;
23080;SDS011;11708;50.570;8.532;2022-09-24T07:10:43;10.93;;;8.60;;
23080;SDS011;11708;50.570;8.532;2022-09-24T07:13:11;10.85;;;8.27;;
23080;SDS011;11708;50.570;8.532;2022-09-24T07:15:37;14.80;;;9.23;;
23080;SDS011;11708;50.570;8.532;2022-09-24T07:18:03;13.43;;;8.73;;
23080;SDS011;11708;50.570;8.532;2022-09-24T07:20:28;12.38;;;8.52;;
23080;SDS011;11708;50.570;8.532;2022-09-24T07:22:54;16.77;;;11.48;;
23080;SDS011;11708;50.570;8.532;2022-09-24T07:25:20;14.32;;;10.45;;
23080;SDS011;11708;50.570;8.532;2022-09-24T07:27:46;11.77;;;9.10;;
23080;SDS011;11708;50.570;8.532;2022-09-24T07:30:11;8.98;;;7.93;;
23080;SDS011;11708;50.570;8.532;2022-09-24T07:32:37;13.93;;;8.55;;
23080;SDS011;11708;50.570;8.532;2022-09-24T07:35:03;16.13;;;9.02;;
23080;SDS011;11708;50.570;8.532;2022-09-24T07:37:29;12.23;;;8.65;;
23080;SDS011;11708;50.570;8.532;2022-09-24T07:39:57;10.20;;;8.38;;
23080;SDS011;11708;50.570;8.532;2022-09-24T07:42:23;13.27;;;8.48;;
23080;SDS011;11708;50.570;8.532;2022-09-24T07:44:49;11.25;;;8.35;;
23080;SDS011;11708;50.570;8.532;2022-09-24T07:47:15;10.45;;;8.52;;
23080;SDS011;11708;50.570;8.532;2022-09-24T07:49:41;11.82;;;8.73;;
23080;SDS011;11708;50.570;8.532;2022-09-24T07:52:07;14.82;;;8.70;;
23080;SDS011;11708;50.570;8.532;2022-09-24T07:54:34;13.18;;;7.93;;
23080;SDS011;11708;50.570;8.532;2022-09-24T07:57:00;11.10;;;8.55;;
23080;SDS011;11708;50.570;8.532;2022-09-24T07:59:26;11.43;;;9.23;;
23080;SDS011;11708;50.570;8.532;2022-09-24T08:01:52;10.20;;;8.05;;
23080;SDS011;11708;50.570;8.532;2022-09-24T08:04:18;11.40;;;8.45;;
23080;SDS011;11708;50.570;8.532;2022-09-24T08:06:44;11.25;;;9.23;;
23080;SDS011;11708;50.570;8.532;2022-09-24T08:09:09;14.10;;;8.63;;
23080;SDS011;11708;50.570;8.532;2022-09-24T08:11:35;10.05;;;8.55;;
23080;SDS011;11708;50.570;8.532;2022-09-24T08:14:01;10.75;;;8.68;;
23080;SDS011;11708;50.570;8.532;2022-09-24T08:16:27;9.90;;;8.70;;
23080;SDS011;11708;50.570;8.532;2022-09-24T08:18:52;11.07;;;7.88;;
23080;SDS011;11708;50.570;8.532;2022-09-24T08:21:18;9.88;;;7.55;;
23080;SDS011;11708;50.570;8.532;2022-09-24T08:23:44;9.00;;;7.78;;
23080;SDS011;11708;50.570;8.532;2022-09-24T08:26:10;12.52;;;8.07;;
23080;SDS011;11708;50.570;8.532;2022-09-24T08:28:37;9.68;;;7.78;;
23080;SDS011;11708;50.570;8.532;2022-09-24T08:31:07;11.63;;;8.30;;
23080;SDS011;11708;50.570;8.532;2022-09-24T08:33:36;10.30;;;7.78;;
23080;SDS011;11708;50.570;8.532;2022-09-24T08:36:03;11.00;;;8.05;;
23080;SDS011;11708;50.570;8.532;2022-09-24T08:38:30;32.45;;;20.75;;
23080;SDS011;11708;50.570;8.532;2022-09-24T08:46:21;12.55;;;10.30;;
23080;SDS011;11708;50.570;8.532;2022-09-24T08:49:11;12.32;;;9.48;;
23080;SDS011;11708;50.570;8.532;2022-09-24T08:54:43;34.40;;;11.73;;
23080;SDS011;11708;50.570;8.532;2022-09-24T08:57:10;13.27;;;8.75;;
23080;SDS011;11708;50.570;8.532;2022-09-24T08:59:40;13.05;;;8.68;;
23080;SDS011;11708;50.570;8.532;2022-09-24T09:07:57;13.95;;;8.43;;
23080;SDS011;11708;50.570;8.532;2022-09-24T09:10:28;11.82;;;8.65;;
23080;SDS011;11708;50.570;8.532;2022-09-24T09:13:12;13.73;;;10.05;;
23080;SDS011;11708;50.570;8.532;2022-09-24T09:15:45;11.55;;;8.73;;
23080;SDS011;11708;50.570;8.532;2022-09-24T09:20:50;12.43;;;10.10;;
23080;SDS011;11708;50.570;8.532;2022-09-24T09:23:20;12.90;;;9.35;;
23080;SDS011;11708;50.570;8.532;2022-09-24T09:25:50;14.32;;;9.50;;
23080;SDS011;11708;50.570;8.532;2022-09-24T09:28:19;11.13;;;9.32;;
23080;SDS011;11708;50.570;8.532;2022-09-24T09:33:41;13.63;;;9.45;;
23080;SDS011;11708;50.570;8.532;2022-09-24T09:42:57;13.40;;;8.98;;
23080;SDS011;11708;50.570;8.532;2022-09-24T09:44:53;10.25;;;8.35;;
23080;SDS011;11708;50.570;8.532;2022-09-24T09:49:54;11.27;;;8.02;;
23080;SDS011;11708;50.570;8.532;2022-09-24T09:52:27;15.13;;;9.13;;
23080;SDS011;11708;50.570;8.532;2022-09-24T09:54:56;12.43;;;8.13;;
23080;SDS011;11708;50.570;8.532;2022-09-24T09:57:23;10.98;;;8.32;;
23080;SDS011;11708;50.570;8.532;2022-09-24T09:59:53;13.80;;;10.07;;
23080;SDS011;11708;50.570;8.532;2022-09-24T10:02:29;12.48;;;9.07;;
23080;SDS011;11708;50.570;8.532;2022-09-24T10:04:57;14.23;;;8.60;;
23080;SDS011;11708;50.570;8.532;2022-09-24T10:07:25;12.95;;;8.05;;
23080;SDS011;11708;50.570;8.532;2022-09-24T10:09:59;11.65;;;7.70;;
23080;SDS011;11708;50.570;8.532;2022-09-24T10:12:26;10.05;;;8.15;;
23080;SDS011;11708;50.570;8.532;2022-09-24T10:15:00;9.82;;;7.60;;
23080;SDS011;11708;50.570;8.532;2022-09-24T10:17:35;11.70;;;7.55;;
23080;SDS011;11708;50.570;8.532;2022-09-24T10:20:06;8.38;;;7.20;;
23080;SDS011;11708;50.570;8.532;2022-09-24T10:22:47;11.73;;;7.68;;
23080;SDS011;11708;50.570;8.532;2022-09-24T10:25:16;9.55;;;7.50;;
23080;SDS011;11708;50.570;8.532;2022-09-24T10:27:44;10.25;;;7.43;;
23080;SDS011;11708;50.570;8.532;2022-09-24T10:30:12;8.55;;;7.40;;
23080;SDS011;11708;50.570;8.532;2022-09-24T10:32:58;8.02;;;6.57;;
23080;SDS011;11708;50.570;8.532;2022-09-24T10:35:27;9.07;;;6.43;;
23080;SDS011;11708;50.570;8.532;2022-09-24T10:37:56;10.95;;;7.50;;
23080;SDS011;11708;50.570;8.532;2022-09-24T10:40:27;8.45;;;6.13;;
23080;SDS011;11708;50.570;8.532;2022-09-24T10:43:14;6.97;;;6.25;;
23080;SDS011;11708;50.570;8.532;2022-09-24T10:48:15;7.03;;;5.45;;
23080;SDS011;11708;50.570;8.532;2022-09-24T10:56:32;6.82;;;4.95;;
23080;SDS011;11708;50.570;8.532;2022-09-24T11:12:39;7.05;;;4.85;;
23080;SDS011;11708;50.570;8.532;2022-09-24T11:18:00;21.35;;;15.25;;
23080;SDS011;11708;50.570;8.532;2022-09-24T11:20:37;8.07;;;5.45;;
23080;SDS011;11708;50.570;8.532;2022-09-24T11:26:12;5.53;;;4.13;;
23080;SDS011;11708;50.570;8.532;2022-09-24T11:29:17;4.53;;;4.13;;
23080;SDS011;11708;50.570;8.532;2022-09-24T11:45:36;5.32;;;3.40;;
23080;SDS011;11708;50.570;8.532;2022-09-24T11:53:42;4.35;;;3.33;;
23080;SDS011;11708;50.570;8.532;2022-09-24T11:56:49;4.00;;;3.42;;
23080;SDS011;11708;50.570;8.532;2022-09-24T12:02:04;4.28;;;2.90;;
23080;SDS011;11708;50.570;8.532;2022-09-24T12:04:56;3.22;;;2.63;;
23080;SDS011;11708;50.570;8.532;2022-09-24T12:10:26;4.22;;;2.50;;
23080;SDS011;11708;50.570;8.532;2022-09-24T12:13:09;4.25;;;2.83;;
23080;SDS011;11708;50.570;8.532;2022-09-24T12:15:50;3.53;;;3.15;;
23080;SDS011;11708;50.570;8.532;2022-09-24T12:18:21;2.95;;;2.75;;
23080;SDS011;11708;50.570;8.532;2022-09-24T12:20:56;4.60;;;3.45;;
23080;SDS011;11708;50.570;8.532;2022-09-24T12:23:36;5.22;;;3.05;;
23080;SDS011;11708;50.570;8.532;2022-09-24T12:26:05;3.67;;;2.95;;
23080;SDS011;11708;50.570;8.532;2022-09-24T12:28:34;3.75;;;3.13;;
23080;SDS011;11708;50.570;8.532;2022-09-24T12:31:45;5.35;;;2.78;;
23080;SDS011;11708;50.570;8.532;2022-09-24T12:34:36;4.70;;;3.40;;
23080;SDS011;11708;50.570;8.532;2022-09-24T12:37:15;6.13;;;3.20;;
23080;SDS011;11708;50.570;8.532;2022-09-24T12:42:14;4.05;;;3.33;;
23080;SDS011;11708;50.570;8.532;2022-09-24T12:44:48;3.35;;;3.05;;
23080;SDS011;11708;50.570;8.532;2022-09-24T12:47:21;4.03;;;3.30;;
23080;SDS011;11708;50.570;8.532;2022-09-24T12:49:54;3.97;;;3.13;;
23080;SDS011;11708;50.570;8.532;2022-09-24T12:52:38;3.65;;;3.00;;
23080;SDS011;11708;50.570;8.532;2022-09-24T12:55:17;3.42;;;2.83;;
23080;SDS011;11708;50.570;8.532;2022-09-24T12:57:48;5.55;;;3.53;;
23080;SDS011;11708;50.570;8.532;2022-09-24T13:06:02;9.73;;;8.07;;
23080;SDS011;11708;50.570;8.532;2022-09-24T13:08:48;6.03;;;4.10;;
23080;SDS011;11708;50.570;8.532;2022-09-24T13:13:57;4.05;;;3.65;;
23080;SDS011;11708;50.570;8.532;2022-09-24T13:16:30;4.28;;;3.20;;
23080;SDS011;11708;50.570;8.532;2022-09-24T13:19:02;4.32;;;3.30;;
23080;SDS011;11708;50.570;8.532;2022-09-24T13:21:30;4.10;;;3.40;;
23080;SDS011;11708;50.570;8.532;2022-09-24T13:23:56;4.30;;;3.10;;
23080;SDS011;11708;50.570;8.532;2022-09-24T13:26:26;4.03;;;2.90;;
23080;SDS011;11708;50.570;8.532;2022-09-24T13:29:02;6.43;;;3.20;;
23080;SDS011;11708;50.570;8.532;2022-09-24T13:36:41;4.63;;;3.45;;
23080;SDS011;11708;50.570;8.532;2022-09-24T13:44:18;6.13;;;3.60;;
23080;SDS011;11708;50.570;8.532;2022-09-24T13:46:49;5.60;;;3.83;;
23080;SDS011;11708;50.570;8.532;2022-09-24T13:49:19;4.65;;;3.25;;
23080;SDS011;11708;50.570;8.532;2022-09-24T13:51:54;4.72;;;3.40;;
23080;SDS011;11708;50.570;8.532;2022-09-24T13:54:33;5.03;;;2.83;;
23080;SDS011;11708;50.570;8.532;2022-09-24T13:57:10;5.78;;;3.00;;
23080;SDS011;11708;50.570;8.532;2022-09-24T13:59:40;2.97;;;2.78;;
23080;SDS011;11708;50.570;8.532;2022-09-24T14:02:22;3.42;;;3.13;;
23080;SDS011;11708;50.570;8.532;2022-09-24T14:04:53;3.33;;;2.70;;
23080;SDS011;11708;50.570;8.532;2022-09-24T14:07:22;2.92;;;2.65;;
23080;SDS011;11708;50.570;8.532;2022-09-24T14:09:47;3.60;;;2.40;;
23080;SDS011;11708;50.570;8.532;2022-09-24T14:12:16;4.47;;;2.80;;
23080;SDS011;11708;50.570;8.532;2022-09-24T14:14:50;3.10;;;2.80;;
23080;SDS011;11708;50.570;8.532;2022-09-24T14:17:17;5.90;;;3.17;;
23080;SDS011;11708;50.570;8.532;2022-09-24T14:19:43;4.10;;;2.80;;
23080;SDS011;11708;50.570;8.532;2022-09-24T14:22:18;4.47;;;3.05;;
23080;SDS011;11708;50.570;8.532;2022-09-24T14:24:55;2.92;;;2.63;;
23080;SDS011;11708;50.570;8.532;2022-09-24T14:27:34;5.55;;;2.63;;
23080;SDS011;11708;50.570;8.532;2022-09-24T14:30:07;3.10;;;2.70;;
23080;SDS011;11708;50.570;8.532;2022-09-24T14:32:42;2.88;;;2.58;;
23080;SDS011;11708;50.570;8.532;2022-09-24T14:35:15;3.15;;;2.63;;
23080;SDS011;11708;50.570;8.532;2022-09-24T14:37:48;4.40;;;2.80;;
23080;SDS011;11708;50.570;8.532;2022-09-24T14:40:17;4.70;;;2.80;;
23080;SDS011;11708;50.570;8.532;2022-09-24T14:42:48;5.03;;;2.90;;
23080;SDS011;11708;50.570;8.532;2022-09-24T14:45:22;3.55;;;2.53;;
23080;SDS011;11708;50.570;8.532;2022-09-24T14:50:30;6.53;;;4.10;;
23080;SDS011;11708;50.570;8.532;2022-09-24T14:53:16;4.10;;;2.50;;
23080;SDS011;11708;50.570;8.532;2022-09-24T14:55:44;6.72;;;2.92;;
23080;SDS011;11708;50.570;8.532;2022-09-24T15:00:58;3.80;;;2.45;;
23080;SDS011;11708;50.570;8.532;2022-09-24T15:03:44;2.63;;;2.30;;
23080;SDS011;11708;50.570;8.532;2022-09-24T15:08:50;5.18;;;2.72;;
23080;SDS011;11708;50.570;8.532;2022-09-24T15:11:19;3.90;;;2.50;;
23080;SDS011;11708;50.570;8.532;2022-09-24T15:14:30;5.70;;;2.90;;
23080;SDS011;11708;50.570;8.532;2022-09-24T15:16:49;2.40;;;2.20;;
23080;SDS011;11708;50.570;8.532;2022-09-24T15:21:51;4.13;;;2.63;;
23080;SDS011;11708;50.570;8.532;2022-09-24T15:24:19;3.28;;;2.70;;
23080;SDS011;11708;50.570;8.532;2022-09-24T15:26:46;3.22;;;2.22;;
23080;SDS011;11708;50.570;8.532;2022-09-24T15:29:22;3.08;;;2.67;;
23080;SDS011;11708;50.570;8.532;2022-09-24T15:31:49;3.30;;;2.47;;
23080;SDS011;11708;50.570;8.532;2022-09-24T15:34:15;5.00;;;2.42;;
23080;SDS011;11708;50.570;8.532;2022-09-24T15:36:41;2.90;;;2.60;;
23080;SDS011;11708;50.570;8.532;2022-09-24T15:39:08;3.78;;;2.90;;
23080;SDS011;11708;50.570;8.532;2022-09-24T15:41:34;9.07;;;2.75;;
23080;SDS011;11708;50.570;8.532;2022-09-24T15:44:00;3.92;;;2.78;;
23080;SDS011;11708;50.570;8.532;2022-09-24T15:46:25;3.17;;;2.60;;
23080;SDS011;11708;50.570;8.532;2022-09-24T15:48:51;2.83;;;2.25;;
23080;SDS011;11708;50.570;8.532;2022-09-24T15:51:17;3.40;;;2.92;;
23080;SDS011;11708;50.570;8.532;2022-09-24T15:53:45;3.13;;;2.78;;
23080;SDS011;11708;50.570;8.532;2022-09-24T15:56:12;4.85;;;2.90;;
23080;SDS011;11708;50.570;8.532;2022-09-24T15:58:38;5.68;;;3.22;;
23080;SDS011;11708;50.570;8.532;2022-09-24T16:01:03;3.55;;;2.90;;
23080;SDS011;11708;50.570;8.532;2022-09-24T16:03:30;7.20;;;4.50;;
23080;SDS011;11708;50.570;8.532;2022-09-24T16:05:57;7.00;;;4.82;;
23080;SDS011;11708;50.570;8.532;2022-09-24T16:08:24;5.32;;;4.47;;
23080;SDS011;11708;50.570;8.532;2022-09-24T16:10:50;9.38;;;5.70;;
23080;SDS011;11708;50.570;8.532;2022-09-24T16:13:16;6.55;;;4.93;;
23080;SDS011;11708;50.570;8.532;2022-09-24T16:15:43;8.75;;;4.47;;
23080;SDS011;11708;50.570;8.532;2022-09-24T16:18:12;6.45;;;3.85;;
23080;SDS011;11708;50.570;8.532;2022-09-24T16:20:39;5.57;;;3.47;;
23080;SDS011;11708;50.570;8.532;2022-09-24T16:23:07;5.10;;;3.67;;
23080;SDS011;11708;50.570;8.532;2022-09-24T16:25:38;5.63;;;3.65;;
23080;SDS011;11708;50.570;8.532;2022-09-24T16:28:03;6.90;;;3.50;;
23080;SDS011;11708;50.570;8.532;2022-09-24T16:30:29;5.25;;;3.60;;
23080;SDS011;11708;50.570;8.532;2022-09-24T16:32:54;4.90;;;3.90;;
23080;SDS011;11708;50.570;8.532;2022-09-24T16:35:20;7.65;;;3.92;;
23080;SDS011;11708;50.570;8.532;2022-09-24T16:37:45;4.70;;;3.97;;
23080;SDS011;11708;50.570;8.532;2022-09-24T16:40:11;6.07;;;3.90;;
23080;SDS011;11708;50.570;8.532;2022-09-24T16:42:36;9.13;;;4.10;;
23080;SDS011;11708;50.570;8.532;2022-09-24T16:45:02;8.60;;;4.55;;
23080;SDS011;11708;50.570;8.532;2022-09-24T16:47:28;5.70;;;3.78;;
23080;SDS011;11708;50.570;8.532;2022-09-24T16:49:53;5.53;;;3.85;;
23080;SDS011;11708;50.570;8.532;2022-09-24T16:52:19;7.05;;;4.75;;
23080;SDS011;11708;50.570;8.532;2022-09-24T16:54:44;9.10;;;6.03;;
23080;SDS011;11708;50.570;8.532;2022-09-24T16:57:10;8.50;;;6.82;;
23080;SDS011;11708;50.570;8.532;2022-09-24T16:59:37;8.52;;;5.15;;
23080;SDS011;11708;50.570;8.532;2022-09-24T17:02:02;7.88;;;5.13;;
23080;SDS011;11708;50.570;8.532;2022-09-24T17:04:28;7.78;;;5.72;;